Time;durP1;ratioP1;P1;durP2;ratioP2;P2;SDS_P1;SDS_P2;PMS_P1;PMS_P2;Temp;Humidity;BMP_temperature;BMP_pressure;BME280_temperature;BME280_humidity;BME280_pressure;Samples;Min_cycle;Max_cycle;Signal;HPM_P1;HPM_P2
2021/07/27 00:00:31;;;;;;;11.68;6.53;;;23.50;99.90;;;;;;5104651;28;20066;-69
2021/07/27 00:03:02;;;;;;;12.23;6.10;;;23.70;99.90;;;;;;5117142;28;20024;-68
2021/07/27 00:05:29;;;;;;;14.93;6.35;;;23.80;99.90;;;;;;5112531;28;20122;-69
2021/07/27 00:07:55;;;;;;;12.77;7.13;;;23.80;99.90;;;;;;5111781;28;20034;-68
2021/07/27 00:10:21;;;;;;;13.98;5.68;;;23.80;99.90;;;;;;5103299;28;20024;-68
2021/07/27 00:12:47;;;;;;;10.60;6.53;;;23.90;99.90;;;;;;5097249;28;20065;-68
2021/07/27 00:15:13;;;;;;;18.15;6.82;;;24.00;99.90;;;;;;5102337;28;20080;-68
2021/07/27 00:17:39;;;;;;;12.90;6.03;;;24.00;99.90;;;;;;5103236;28;20035;-69
2021/07/27 00:20:05;;;;;;;11.77;6.65;;;24.00;99.90;;;;;;5111486;28;20050;-68
2021/07/27 00:22:31;;;;;;;15.30;7.22;;;24.00;99.90;;;;;;5111503;28;20028;-68
2021/07/27 00:25:00;;;;;;;8.60;5.40;;;24.00;99.90;;;;;;5105612;28;20386;-68
2021/07/27 00:27:26;;;;;;;12.15;5.70;;;24.00;99.90;;;;;;5110295;28;20042;-68
2021/07/27 00:29:52;;;;;;;16.10;6.60;;;24.10;99.90;;;;;;5110455;28;20023;-69
2021/07/27 00:32:25;;;;;;;12.80;6.80;;;24.10;99.90;;;;;;5108001;28;20030;-69
2021/07/27 00:34:54;;;;;;;16.40;7.57;;;24.10;99.90;;;;;;5103943;28;20119;-68
2021/07/27 00:37:26;;;;;;;18.23;7.18;;;24.10;99.90;;;;;;5107723;28;20024;-68
2021/07/27 00:39:52;;;;;;;10.93;6.68;;;24.00;99.90;;;;;;5118631;28;20035;-68
2021/07/27 00:42:19;;;;;;;13.02;7.40;;;24.00;99.90;;;;;;5115844;28;20385;-68
2021/07/27 00:44:46;;;;;;;13.23;5.95;;;24.10;99.90;;;;;;5109233;28;20024;-68
2021/07/27 00:47:11;;;;;;;14.73;6.78;;;24.10;99.90;;;;;;5111122;28;20047;-68
2021/07/27 00:49:38;;;;;;;13.65;7.35;;;24.20;99.90;;;;;;5110601;28;20489;-68
2021/07/27 00:52:04;;;;;;;16.60;8.70;;;24.20;99.90;;;;;;5116486;28;20031;-68
2021/07/27 00:54:30;;;;;;;14.18;7.30;;;24.20;99.90;;;;;;5110420;28;20028;-68
2021/07/27 00:56:56;;;;;;;12.15;8.00;;;24.20;99.90;;;;;;5112995;28;20023;-68
2021/07/27 00:59:22;;;;;;;11.63;7.78;;;24.10;99.90;;;;;;5112905;28;20020;-69
2021/07/27 01:01:48;;;;;;;20.27;7.85;;;24.10;99.90;;;;;;5112342;28;20034;-68
2021/07/27 01:04:14;;;;;;;19.90;8.38;;;24.20;99.90;;;;;;5114834;28;20024;-69
2021/07/27 01:06:40;;;;;;;20.00;9.50;;;24.20;99.90;;;;;;5110409;28;20031;-68
2021/07/27 01:09:05;;;;;;;23.67;9.65;;;24.30;99.90;;;;;;5110451;28;20020;-68
2021/07/27 01:11:31;;;;;;;16.35;8.50;;;24.30;99.90;;;;;;5103077;28;20506;-68
2021/07/27 01:13:57;;;;;;;13.32;8.15;;;24.20;99.90;;;;;;5111291;28;20549;-68
2021/07/27 01:16:29;;;;;;;14.57;9.30;;;24.20;99.90;;;;;;5105491;28;20237;-68
2021/07/27 01:38:17;;;;;;;14.90;9.23;;;24.20;99.90;;;;;;5108165;28;20115;-68
2021/07/27 01:40:59;;;;;;;24.02;9.52;;;24.10;99.90;;;;;;5104378;28;20023;-68
2021/07/27 01:43:29;;;;;;;21.52;10.48;;;24.20;99.90;;;;;;5100659;28;20055;-68
2021/07/27 01:45:55;;;;;;;17.80;10.13;;;24.20;99.90;;;;;;5105119;28;20016;-68
2021/07/27 01:48:35;;;;;;;20.23;10.27;;;24.20;99.90;;;;;;5104110;28;20489;-68
2021/07/27 01:51:03;;;;;;;14.25;9.75;;;24.30;99.90;;;;;;5104989;28;20534;-68
2021/07/27 01:53:47;;;;;;;22.42;11.20;;;24.20;99.90;;;;;;5106435;28;20027;-69
2021/07/27 01:56:13;;;;;;;15.63;10.35;;;24.30;99.90;;;;;;5105627;28;20405;-68
2021/07/27 01:58:39;;;;;;;17.23;11.38;;;24.30;99.90;;;;;;5108170;28;20031;-69
2021/07/27 02:01:05;;;;;;;16.15;10.65;;;24.30;99.90;;;;;;5093347;28;20024;-68
2021/07/27 02:03:31;;;;;;;21.10;11.10;;;24.30;99.90;;;;;;5110107;28;20024;-68
2021/07/27 02:05:57;;;;;;;17.35;10.98;;;24.20;99.90;;;;;;5098472;28;20023;-69
2021/07/27 02:08:23;;;;;;;18.75;9.50;;;24.30;99.90;;;;;;5104859;28;20104;-68
2021/07/27 02:10:53;;;;;;;21.40;11.77;;;24.30;99.90;;;;;;5095660;28;20042;-68
2021/07/27 02:13:28;;;;;;;19.60;10.77;;;24.40;99.90;;;;;;5100656;28;20027;-68
2021/07/27 02:15:54;;;;;;;18.00;11.35;;;24.40;99.90;;;;;;5105021;28;20028;-68
2021/07/27 02:18:21;;;;;;;23.83;12.65;;;24.30;99.90;;;;;;5097608;28;20093;-68
2021/07/27 02:20:47;;;;;;;22.52;11.82;;;24.40;99.90;;;;;;5102280;28;20120;-68
2021/07/27 02:23:13;;;;;;;23.45;12.45;;;24.40;99.90;;;;;;5106780;28;20174;-68
2021/07/27 02:25:38;;;;;;;20.60;11.75;;;24.30;99.90;;;;;;5101952;28;20099;-68
2021/07/27 02:28:06;;;;;;;22.60;13.55;;;24.30;99.90;;;;;;5108037;28;20024;-67
2021/07/27 02:30:38;;;;;;;21.30;12.75;;;24.30;99.90;;;;;;5099498;28;20024;-68
2021/07/27 02:33:04;;;;;;;20.55;12.18;;;24.30;99.90;;;;;;5103003;28;20546;-68
2021/07/27 02:35:39;;;;;;;19.50;11.50;;;24.30;99.90;;;;;;5102742;28;20040;-68
2021/07/27 02:38:05;;;;;;;20.08;12.45;;;24.30;99.90;;;;;;5107796;28;20071;-69
2021/07/27 02:40:34;;;;;;;13.82;11.80;;;24.40;99.90;;;;;;5103813;28;20032;-68
2021/07/27 02:43:02;;;;;;;26.45;13.63;;;24.40;99.90;;;;;;5104921;28;20054;-69
2021/07/27 02:45:28;;;;;;;14.82;11.90;;;24.50;99.90;;;;;;5104904;28;20622;-69
2021/07/27 02:47:54;;;;;;;28.15;13.07;;;24.50;99.90;;;;;;5107451;28;20020;-69
2021/07/27 02:50:20;;;;;;;25.17;13.38;;;24.50;99.90;;;;;;5100915;28;20100;-69
2021/07/27 02:52:46;;;;;;;24.70;12.40;;;24.60;99.90;;;;;;5105188;28;20504;-69
2021/07/27 02:55:11;;;;;;;23.60;13.45;;;24.60;99.90;;;;;;5106438;28;20469;-69
2021/07/27 02:57:38;;;;;;;24.55;13.43;;;24.50;99.90;;;;;;5106855;28;20092;-69
2021/07/27 03:00:09;;;;;;;19.30;13.27;;;24.50;99.90;;;;;;5096557;28;20036;-69
2021/07/27 03:02:45;;;;;;;25.00;13.52;;;24.50;99.90;;;;;;5105264;28;20081;-69
2021/07/27 03:05:17;;;;;;;24.00;12.73;;;24.50;99.90;;;;;;5103894;28;20019;-69
2021/07/27 03:12:56;;;;;;;25.73;12.85;;;24.60;99.90;;;;;;5095616;28;20033;-69
2021/07/27 03:15:23;;;;;;;24.45;13.95;;;24.70;99.90;;;;;;5112853;28;20031;-68
2021/07/27 03:17:54;;;;;;;18.23;12.45;;;24.70;99.90;;;;;;5108893;28;20065;-69
2021/07/27 03:20:21;;;;;;;22.70;12.83;;;24.70;99.90;;;;;;5111491;28;20020;-69
2021/07/27 03:22:47;;;;;;;18.13;12.18;;;24.60;99.90;;;;;;5101017;28;21021;-68
2021/07/27 03:25:18;;;;;;;23.90;13.68;;;24.70;99.90;;;;;;5111642;28;20024;-69
2021/07/27 03:27:44;;;;;;;28.63;13.63;;;24.70;99.90;;;;;;5107819;28;20152;-69
2021/07/27 03:30:11;;;;;;;30.13;14.05;;;24.70;99.90;;;;;;5111297;28;20043;-69
2021/07/27 03:32:38;;;;;;;21.40;13.90;;;24.60;99.90;;;;;;5104653;28;20023;-69
2021/07/27 03:35:05;;;;;;;31.50;13.80;;;24.60;99.90;;;;;;5106625;28;20031;-68
2021/07/27 03:37:33;;;;;;;31.65;13.48;;;24.50;99.90;;;;;;5103369;28;20051;-68
2021/07/27 03:39:59;;;;;;;23.65;12.77;;;24.50;99.90;;;;;;5109183;28;20533;-68
2021/07/27 03:42:25;;;;;;;25.70;14.57;;;24.60;99.90;;;;;;5110384;28;20087;-68
2021/07/27 03:44:57;;;;;;;21.05;13.15;;;24.60;99.90;;;;;;5110761;28;20024;-68
2021/07/27 03:47:23;;;;;;;24.42;14.52;;;24.60;99.90;;;;;;5105116;28;20080;-68
2021/07/27 03:49:50;;;;;;;23.40;12.70;;;24.70;99.90;;;;;;5110274;28;20039;-69
2021/07/27 03:52:15;;;;;;;21.67;13.77;;;24.70;99.90;;;;;;5110881;28;20024;-68
2021/07/27 03:54:43;;;;;;;18.17;13.43;;;24.70;99.90;;;;;;5106425;28;20035;-68
2021/07/27 03:57:09;;;;;;;25.95;14.57;;;24.70;99.90;;;;;;5105417;28;20032;-69
2021/07/27 03:59:35;;;;;;;24.73;13.55;;;24.70;99.90;;;;;;5108907;28;20031;-69
2021/07/27 04:02:02;;;;;;;19.35;14.30;;;24.70;99.90;;;;;;5105672;28;20066;-69
2021/07/27 04:04:31;;;;;;;27.67;14.88;;;24.80;99.90;;;;;;5109744;28;20063;-69
2021/07/27 04:06:57;;;;;;;25.70;14.90;;;24.80;99.90;;;;;;5105058;28;20548;-69
2021/07/27 04:09:27;;;;;;;21.38;12.55;;;24.80;99.90;;;;;;5100421;28;20115;-69
2021/07/27 04:11:52;;;;;;;28.90;14.13;;;24.80;99.90;;;;;;5111275;28;20035;-69
2021/07/27 04:14:18;;;;;;;30.88;14.73;;;24.80;99.90;;;;;;5112973;28;20102;-69
2021/07/27 04:16:44;;;;;;;32.72;15.07;;;24.90;99.90;;;;;;5111291;28;20385;-69
2021/07/27 04:19:10;;;;;;;31.20;15.55;;;24.90;99.90;;;;;;5104984;28;20136;-68
2021/07/27 04:21:36;;;;;;;30.20;15.05;;;24.80;99.90;;;;;;5108016;28;20504;-68
2021/07/27 04:24:02;;;;;;;23.67;14.52;;;24.80;99.90;;;;;;5109949;28;20063;-69
2021/07/27 04:26:28;;;;;;;26.23;15.25;;;24.80;99.90;;;;;;5109273;28;20030;-69
2021/07/27 04:28:54;;;;;;;22.10;15.13;;;24.80;99.90;;;;;;5104892;28;20094;-69
2021/07/27 04:31:20;;;;;;;28.27;17.20;;;24.80;99.90;;;;;;5107930;28;20147;-68
2021/07/27 04:33:46;;;;;;;26.58;16.95;;;24.90;99.90;;;;;;5105333;28;20024;-68
2021/07/27 04:36:13;;;;;;;20.20;15.10;;;24.90;99.90;;;;;;5104766;28;20046;-68
2021/07/27 04:38:39;;;;;;;29.65;17.48;;;25.00;99.90;;;;;;5104930;28;20035;-69
2021/07/27 04:41:05;;;;;;;25.10;17.15;;;25.00;99.90;;;;;;5108522;28;20028;-69
2021/07/27 04:43:31;;;;;;;28.58;16.70;;;25.10;99.90;;;;;;5108025;28;20405;-69
2021/07/27 04:46:01;;;;;;;27.58;16.40;;;25.10;99.90;;;;;;5108786;28;20061;-67
2021/07/27 04:48:27;;;;;;;25.30;16.77;;;25.10;99.90;;;;;;5106565;27;20094;-68
2021/07/27 04:50:53;;;;;;;31.02;16.63;;;25.10;99.90;;;;;;5101331;28;20027;-68
2021/07/27 04:53:23;;;;;;;31.52;18.83;;;25.10;99.90;;;;;;5110266;28;20482;-69
2021/07/27 04:55:53;;;;;;;24.35;18.45;;;25.20;99.90;;;;;;5106633;28;20028;-69
2021/07/27 04:58:21;;;;;;;24.73;16.85;;;25.20;99.90;;;;;;5088951;28;20123;-69
2021/07/27 05:00:47;;;;;;;26.00;16.27;;;25.30;99.90;;;;;;5103961;28;20062;-69
2021/07/27 05:03:12;;;;;;;31.48;16.98;;;25.40;99.90;;;;;;5103127;28;20028;-69
2021/07/27 05:05:38;;;;;;;27.88;17.55;;;25.50;99.90;;;;;;5109038;28;20024;-69
2021/07/27 05:08:04;;;;;;;24.60;16.60;;;25.60;99.90;;;;;;5107199;28;20348;-70
2021/07/27 05:10:30;;;;;;;25.98;19.13;;;25.70;99.90;;;;;;5108192;28;20035;-70
2021/07/27 05:12:57;;;;;;;31.15;19.00;;;25.70;99.90;;;;;;5099254;28;20028;-68
2021/07/27 05:15:22;;;;;;;33.40;20.00;;;25.80;99.90;;;;;;5103521;28;20080;-69
2021/07/27 05:17:48;;;;;;;24.83;17.42;;;25.90;99.90;;;;;;5102348;28;20035;-69
2021/07/27 05:20:16;;;;;;;30.67;17.02;;;25.80;99.90;;;;;;5106119;28;20024;-69
2021/07/27 05:22:42;;;;;;;30.25;17.77;;;25.60;99.90;;;;;;5102009;28;20036;-69
2021/07/27 05:25:09;;;;;;;22.27;18.17;;;25.50;99.90;;;;;;5105844;28;20023;-70
2021/07/27 05:27:36;;;;;;;26.50;17.10;;;25.50;99.90;;;;;;5105945;28;20023;-69
2021/07/27 05:30:03;;;;;;;31.80;16.48;;;25.40;99.90;;;;;;5107596;28;20054;-69
2021/07/27 05:32:29;;;;;;;27.80;16.60;;;25.40;99.90;;;;;;5110530;28;20031;-69
2021/07/27 05:34:55;;;;;;;34.20;16.13;;;25.40;99.90;;;;;;5109065;28;20058;-70
2021/07/27 05:37:21;;;;;;;29.10;15.93;;;25.50;99.90;;;;;;5107621;28;20081;-69
2021/07/27 05:39:48;;;;;;;26.15;17.15;;;25.50;99.90;;;;;;5103207;28;20089;-70
2021/07/27 05:42:14;;;;;;;43.72;16.63;;;25.60;99.90;;;;;;5106881;28;20059;-69
2021/07/27 05:44:42;;;;;;;31.80;14.95;;;25.70;99.90;;;;;;5105407;28;20031;-69
2021/07/27 05:47:08;;;;;;;27.73;14.30;;;25.70;99.90;;;;;;5108086;28;20028;-69
2021/07/27 05:49:35;;;;;;;29.52;14.27;;;25.70;99.90;;;;;;5104541;28;20485;-70
2021/07/27 05:52:04;;;;;;;26.48;14.57;;;25.70;99.90;;;;;;5108324;28;20028;-70
2021/07/27 05:54:30;;;;;;;27.40;14.77;;;25.80;99.90;;;;;;5108536;28;20412;-70
2021/07/27 05:56:56;;;;;;;26.50;15.52;;;25.80;99.90;;;;;;5103232;28;20473;-70
2021/07/27 05:59:22;;;;;;;22.73;15.35;;;25.90;99.90;;;;;;5106993;28;20032;-69
2021/07/27 06:01:49;;;;;;;32.65;15.32;;;26.00;99.90;;;;;;5107069;28;20023;-69
2021/07/27 06:04:16;;;;;;;27.70;14.45;;;26.00;99.90;;;;;;5107804;28;20056;-70
2021/07/27 06:06:41;;;;;;;24.83;14.10;;;26.10;99.90;;;;;;5107964;28;20085;-70
2021/07/27 06:09:10;;;;;;;22.83;13.85;;;26.10;99.90;;;;;;5108334;28;20015;-69
2021/07/27 06:11:37;;;;;;;23.27;13.70;;;26.20;99.90;;;;;;5105519;28;20023;-69
2021/07/27 06:14:06;;;;;;;25.95;14.70;;;26.30;99.90;;;;;;5107064;28;20028;-69
2021/07/27 06:16:40;;;;;;;22.55;14.50;;;26.30;99.90;;;;;;5107863;28;20061;-69
2021/07/27 06:19:07;;;;;;;23.40;13.30;;;26.50;99.90;;;;;;5105843;28;20373;-69
2021/07/27 06:21:35;;;;;;;26.73;15.13;;;26.60;99.90;;;;;;5108325;28;20024;-70
2021/07/27 06:24:00;;;;;;;26.08;13.55;;;26.70;99.90;;;;;;5107280;28;20027;-69
2021/07/27 06:26:26;;;;;;;22.15;12.68;;;26.80;99.90;;;;;;5110887;28;20023;-69
2021/07/27 06:28:52;;;;;;;26.38;13.88;;;27.10;99.90;;;;;;5107547;28;20028;-69
2021/07/27 06:31:18;;;;;;;20.83;12.38;;;27.10;99.90;;;;;;5100174;28;20528;-71
2021/07/27 06:33:45;;;;;;;29.30;14.70;;;27.50;99.90;;;;;;5108518;28;20500;-70
2021/07/27 06:36:13;;;;;;;18.10;13.75;;;27.80;99.90;;;;;;5113842;28;20020;-69
2021/07/27 06:38:39;;;;;;;25.85;12.73;;;27.90;99.90;;;;;;5110974;28;20035;-69
2021/07/27 06:41:06;;;;;;;21.98;13.15;;;27.90;99.90;;;;;;5113727;28;20541;-69
2021/07/27 06:43:33;;;;;;;29.30;11.77;;;28.00;99.90;;;;;;5113044;28;20030;-69
2021/07/27 06:45:59;;;;;;;15.18;12.02;;;28.00;99.90;;;;;;5103757;28;20106;-69
2021/07/27 06:48:25;;;;;;;21.73;12.25;;;28.10;99.90;;;;;;5108413;28;20110;-70
2021/07/27 06:50:51;;;;;;;20.63;11.73;;;28.30;99.90;;;;;;5098057;27;20039;-69
2021/07/27 06:53:17;;;;;;;26.70;12.30;;;28.40;99.90;;;;;;5112587;28;20024;-67
2021/07/27 06:55:43;;;;;;;26.35;13.15;;;28.40;99.90;;;;;;5111980;28;20030;-69
2021/07/27 06:58:09;;;;;;;30.80;11.70;;;28.40;99.90;;;;;;5108379;28;20023;-71
2021/07/27 07:00:35;;;;;;;23.80;13.25;;;28.20;99.90;;;;;;5104308;28;20428;-71
2021/07/27 07:03:01;;;;;;;21.58;11.48;;;28.00;99.90;;;;;;5104577;28;20035;-69
2021/07/27 07:05:27;;;;;;;21.40;13.60;;;27.80;99.90;;;;;;5103604;28;20038;-68
2021/07/27 07:07:53;;;;;;;22.88;10.73;;;27.70;99.90;;;;;;5095147;28;20024;-69
2021/07/27 07:10:18;;;;;;;28.17;12.82;;;27.50;99.90;;;;;;5095220;28;20085;-69
2021/07/27 07:12:44;;;;;;;24.05;12.77;;;27.50;99.90;;;;;;5111756;28;20050;-69
2021/07/27 07:15:10;;;;;;;24.45;12.27;;;27.30;99.90;;;;;;5105995;28;20051;-71
2021/07/27 07:17:36;;;;;;;29.83;13.15;;;27.20;99.90;;;;;;5093586;28;20471;-70
2021/07/27 07:20:02;;;;;;;28.10;13.30;;;27.10;99.90;;;;;;5111724;28;20030;-70
2021/07/27 07:22:30;;;;;;;31.48;14.27;;;27.00;99.90;;;;;;5110784;28;20023;-70
2021/07/27 07:25:05;;;;;;;26.63;15.00;;;26.80;99.90;;;;;;5109818;28;20102;-70
2021/07/27 07:28:11;;;;;;;46.72;15.98;;;26.50;99.90;;;;;;5101854;28;20036;-72
2021/07/27 07:30:41;;;;;;;42.13;20.45;;;26.10;99.90;;;;;;5096044;28;20058;-70
2021/07/27 07:33:07;;;;;;;44.65;19.63;;;25.70;99.90;;;;;;5094082;28;20032;-71
2021/07/27 07:35:36;;;;;;;49.38;20.10;;;25.20;99.90;;;;;;5107448;28;20553;-69
2021/07/27 07:38:02;;;;;;;43.15;20.25;;;24.90;99.90;;;;;;5114226;28;20069;-71
2021/07/27 07:40:28;;;;;;;37.03;20.15;;;24.60;99.90;;;;;;5113002;28;20028;-70
2021/07/27 07:42:58;;;;;;;33.53;22.80;;;24.40;99.90;;;;;;5103479;28;20091;-71
2021/07/27 07:45:24;;;;;;;42.25;21.45;;;24.30;99.90;;;;;;5092266;28;20550;-70
2021/07/27 07:47:50;;;;;;;42.83;22.13;;;24.20;99.90;;;;;;5091614;28;20082;-71
2021/07/27 07:50:16;;;;;;;35.92;19.77;;;24.20;99.90;;;;;;5093990;28;20020;-71
2021/07/27 07:52:42;;;;;;;40.65;21.25;;;24.40;99.90;;;;;;5093567;28;20020;-71
2021/07/27 07:55:09;;;;;;;38.22;22.00;;;24.40;99.90;;;;;;5093648;28;20035;-71
2021/07/27 07:57:36;;;;;;;44.25;20.38;;;24.40;99.90;;;;;;5099719;28;20385;-70
2021/07/27 08:00:03;;;;;;;38.17;21.50;;;24.40;99.90;;;;;;5112342;28;20020;-70
2021/07/27 08:02:29;;;;;;;38.08;21.65;;;24.40;99.90;;;;;;5108064;28;20603;-70
2021/07/27 08:04:55;;;;;;;32.17;22.17;;;24.40;99.90;;;;;;5111837;28;20040;-69
2021/07/27 08:07:21;;;;;;;36.13;20.80;;;24.70;99.90;;;;;;5112669;28;20072;-73
2021/07/27 08:09:47;;;;;;;34.92;19.40;;;24.80;99.90;;;;;;5111420;28;20106;-73
2021/07/27 08:12:14;;;;;;;29.63;18.38;;;24.80;99.90;;;;;;5113508;28;20500;-65
2021/07/27 08:14:39;;;;;;;29.48;17.33;;;25.20;99.90;;;;;;5113091;28;20028;-65
2021/07/27 08:17:05;;;;;;;42.03;16.17;;;25.30;99.90;;;;;;5112798;28;20035;-67
2021/07/27 08:19:31;;;;;;;30.08;17.15;;;25.40;99.90;;;;;;5111628;28;20031;-64
2021/07/27 08:21:57;;;;;;;36.72;15.25;;;25.50;99.90;;;;;;5101793;28;20076;-65
2021/07/27 08:24:25;;;;;;;31.63;15.25;;;25.60;99.90;;;;;;5106543;28;20114;-67
2021/07/27 08:26:51;;;;;;;36.00;14.57;;;25.60;99.90;;;;;;5111624;28;20027;-67
2021/07/27 08:29:16;;;;;;;29.65;14.45;;;25.60;99.90;;;;;;5112792;28;20020;-68
2021/07/27 08:31:44;;;;;;;22.50;14.60;;;25.70;99.90;;;;;;5111178;28;20502;-68
2021/07/27 08:34:16;;;;;;;32.10;15.38;;;25.70;99.90;;;;;;5112543;28;20031;-65
2021/07/27 08:36:42;;;;;;;;;;;25.70;99.90;;;;;;5109180;28;20114;-67
2021/07/27 08:39:07;;;;;;;27.90;13.93;;;25.80;99.90;;;;;;5091998;28;19955;-65
2021/07/27 08:41:37;;;;;;;35.47;14.40;;;25.80;99.90;;;;;;5091950;28;20549;-71
2021/07/27 08:44:04;;;;;;;25.50;15.05;;;25.30;99.90;;;;;;5091908;28;20035;-73
2021/07/27 08:46:30;;;;;;;28.17;15.35;;;24.90;99.90;;;;;;5096848;28;20096;-73
2021/07/27 08:48:57;;;;;;;30.65;15.68;;;24.70;99.90;;;;;;5110731;28;20023;-73
2021/07/27 08:51:24;;;;;;;38.20;15.45;;;24.50;99.90;;;;;;5106622;28;20052;-74
2021/07/27 08:53:50;;;;;;;38.30;16.80;;;24.60;99.90;;;;;;5090691;28;20085;-73
2021/07/27 08:56:17;;;;;;;29.92;15.70;;;24.70;99.90;;;;;;5090473;28;20024;-74
2021/07/27 08:58:43;;;;;;;32.47;15.38;;;24.80;99.90;;;;;;5101335;28;20023;-75
2021/07/27 09:01:08;;;;;;;26.75;16.20;;;24.90;99.90;;;;;;5110517;28;20026;-74
2021/07/27 09:03:34;;;;;;;22.25;14.85;;;25.00;99.90;;;;;;5112429;28;20059;-72
2021/07/27 09:06:06;;;;;;;29.95;15.05;;;25.20;99.90;;;;;;5105055;28;20030;-72
2021/07/27 09:08:32;;;;;;;24.95;14.32;;;25.30;99.90;;;;;;5095733;28;20031;-73
2021/07/27 09:11:01;;;;;;;34.45;15.55;;;25.60;99.90;;;;;;5091178;28;20079;-74
2021/07/27 09:13:33;;;;;;;30.33;14.20;;;25.70;99.90;;;;;;5093420;28;20027;-72
2021/07/27 09:15:59;;;;;;;27.08;13.25;;;25.60;99.90;;;;;;5092429;28;20035;-71
2021/07/27 09:18:25;;;;;;;22.38;13.68;;;25.60;99.90;;;;;;5089890;28;20156;-72
2021/07/27 09:20:59;;;;;;;35.30;15.50;;;25.70;99.90;;;;;;5121117;27;20379;-70
2021/07/27 09:23:28;;;;;;;27.05;14.10;;;25.90;99.90;;;;;;5108246;28;20031;-71
2021/07/27 09:25:59;;;;;;;29.00;14.00;;;26.00;99.90;;;;;;5107897;28;20023;-73
2021/07/27 09:28:26;;;;;;;33.40;15.57;;;26.00;99.90;;;;;;5086900;28;20555;-72
2021/07/27 09:31:02;;;;;;;29.58;13.77;;;26.10;99.90;;;;;;5095315;28;20031;-72
2021/07/27 09:33:30;;;;;;;30.67;14.90;;;26.30;99.90;;;;;;5107669;28;20096;-72
2021/07/27 09:35:55;;;;;;;23.90;16.30;;;26.50;99.90;;;;;;5089537;28;20034;-73
2021/07/27 09:38:21;;;;;;;34.83;12.48;;;26.60;99.90;;;;;;5089532;28;20032;-72
2021/07/27 09:40:53;;;;;;;31.17;14.07;;;26.70;99.90;;;;;;5107547;28;20028;-72
2021/07/27 09:43:21;;;;;;;28.35;12.82;;;26.80;99.90;;;;;;5107760;28;20020;-72
2021/07/27 09:46:05;;;;;;;19.48;11.85;;;27.00;99.90;;;;;;5109068;28;20039;-72
2021/07/27 09:48:33;;;;;;;29.65;12.35;;;27.20;99.90;;;;;;5091272;28;20039;-72
2021/07/27 09:50:59;;;;;;;26.13;11.63;;;27.30;99.90;;;;;;5109330;28;20027;-73
2021/07/27 09:53:24;;;;;;;35.75;12.75;;;27.40;99.90;;;;;;5107623;28;20012;-73
2021/07/27 09:55:51;;;;;;;20.67;11.70;;;27.30;99.90;;;;;;5089299;28;20032;-74
2021/07/27 09:58:17;;;;;;;24.15;12.00;;;27.30;99.90;;;;;;5107353;28;20077;-73
2021/07/27 10:00:50;;;;;;;22.83;12.85;;;27.40;99.90;;;;;;5088993;28;20093;-72
2021/07/27 10:03:38;;;;;;;20.77;12.23;;;27.60;99.90;;;;;;5107288;28;20370;-73
2021/07/27 10:06:05;;;;;;;21.98;12.00;;;27.60;99.90;;;;;;5106359;28;20098;-72
2021/07/27 10:08:32;;;;;;;25.30;12.52;;;27.80;99.90;;;;;;5088577;28;20417;-73
2021/07/27 10:11:44;;;;;;;24.15;12.52;;;27.80;99.90;;;;;;5088982;28;20027;-72
2021/07/27 10:14:16;;;;;;;31.33;15.10;;;27.70;99.90;;;;;;5106776;28;20409;-73
2021/07/27 10:16:43;;;;;;;;;;;27.70;99.90;;;;;;5107219;28;20089;-73
2021/07/27 10:19:12;;;;;;;;;;;27.80;99.90;;;;;;5089781;28;19911;-72
2021/07/27 10:21:38;;;;;;;;;;;27.90;99.90;;;;;;5104590;28;19915;-73
2021/07/27 10:24:12;;;;;;;;;;;28.00;99.90;;;;;;5107815;28;19904;-73
2021/07/27 10:26:38;;;;;;;;;;;28.20;99.90;;;;;;5107434;28;19910;-73
2021/07/27 10:29:04;;;;;;;;;;;28.20;99.90;;;;;;5107196;28;20003;-73
2021/07/27 10:31:33;;;;;;;;;;;28.40;99.90;;;;;;5080566;28;19990;-71
2021/07/27 10:34:00;;;;;;;;;;;28.50;99.90;;;;;;5094066;28;19911;-72
2021/07/27 10:36:34;;;;;;;;;;;28.70;99.90;;;;;;5076029;28;19924;-72
2021/07/27 10:39:09;;;;;;;;;;;28.90;99.90;;;;;;5075138;28;19941;-72
2021/07/27 10:41:35;;;;;;;;;;;29.30;99.90;;;;;;5093678;28;19904;-73
2021/07/27 10:44:05;;;;;;;;;;;29.70;99.90;;;;;;5075045;28;20147;-73
2021/07/27 10:46:34;;;;;;;;;;;30.00;99.90;;;;;;5094944;28;19904;-73
2021/07/27 10:49:00;;;;;;;;;;;30.40;99.90;;;;;;5093661;28;19923;-72
2021/07/27 10:51:26;;;;;;;;;;;30.40;99.90;;;;;;5075461;28;19911;-73
2021/07/27 10:53:53;;;;;;;;;;;30.70;99.90;;;;;;5094038;28;20309;-72
2021/07/27 10:56:21;;;;;;;;;;;30.90;99.90;;;;;;5075502;28;19908;-73
2021/07/27 10:58:47;;;;;;;;;;;30.70;99.90;;;;;;5093110;28;19970;-70
2021/07/27 11:01:12;;;;;;;;;;;30.80;99.90;;;;;;5093362;28;19908;-72
2021/07/27 11:03:40;;;;;;;;;;;31.00;99.90;;;;;;5093592;28;19904;-72
2021/07/27 11:06:06;;;;;;;;;;;30.70;99.90;;;;;;5093391;28;19907;-73
2021/07/27 11:08:32;;;;;;;;;;;30.60;99.90;;;;;;5094404;28;19907;-70
2021/07/27 11:11:12;;;;;;;;;;;30.70;99.90;;;;;;5093525;28;19915;-71
2021/07/27 11:13:39;;;;;;;;;;;30.90;99.90;;;;;;5100115;28;20281;-70
2021/07/27 11:16:05;;;;;;;;;;;31.00;99.90;;;;;;5096039;28;19947;-71
2021/07/27 11:18:31;;;;;;;;;;;31.00;99.90;;;;;;5095173;28;20247;-73
2021/07/27 11:20:58;;;;;;;;;;;31.00;99.90;;;;;;5094869;28;20038;-73
2021/07/27 11:23:30;;;;;;;;;;;30.90;99.90;;;;;;5076073;28;19908;-74
2021/07/27 11:26:00;;;;;;;;;;;30.90;99.90;;;;;;5079181;28;19904;-72
2021/07/27 11:28:43;;;;;;;25.42;10.82;;;30.90;99.90;;;;;;5081654;28;20419;-74
2021/07/27 11:31:21;;;;;;;21.90;9.93;;;30.90;99.90;;;;;;5079820;28;20028;-74
2021/07/27 11:33:52;;;;;;;17.60;10.35;;;31.00;99.90;;;;;;5097253;28;20027;-75
2021/07/27 11:36:26;;;;;;;20.90;10.38;;;31.40;99.90;;;;;;5089890;28;20036;-74
2021/07/27 11:39:08;;;;;;;25.38;10.25;;;31.50;99.90;;;;;;5069212;28;20029;-73
2021/07/27 11:41:34;;;;;;;24.38;10.77;;;31.80;99.90;;;;;;5092935;28;20103;-73
2021/07/27 11:43:59;;;;;;;20.05;10.93;;;32.00;99.90;;;;;;5087443;28;20110;-72
2021/07/27 11:46:35;;;;;;;24.85;10.45;;;31.90;99.90;;;;;;5083279;28;21083;-72
2021/07/27 11:49:08;;;;;;;30.27;12.13;;;31.70;99.90;;;;;;5088626;28;20132;-71
2021/07/27 11:51:34;;;;;;;30.83;11.65;;;31.90;99.90;;;;;;5063835;28;20068;-72
2021/07/27 11:54:00;;;;;;;23.33;10.68;;;31.90;99.90;;;;;;5084463;28;20051;-72
2021/07/27 11:56:26;;;;;;;21.65;11.75;;;32.00;99.90;;;;;;5091612;28;20077;-73
2021/07/27 11:59:06;;;;;;;23.08;11.45;;;32.10;99.90;;;;;;5085299;28;20097;-72
2021/07/27 12:01:36;;;;;;;26.40;10.57;;;31.80;99.90;;;;;;5068732;28;20022;-72
2021/07/27 12:04:02;;;;;;;14.17;9.13;;;31.60;99.90;;;;;;5091515;28;20638;-72
2021/07/27 12:06:28;;;;;;;26.98;10.48;;;31.70;99.90;;;;;;5089101;28;20298;-73
2021/07/27 12:08:54;;;;;;;18.73;10.02;;;31.70;99.90;;;;;;5069453;28;20036;-73
2021/07/27 12:11:19;;;;;;;18.40;10.95;;;31.70;99.90;;;;;;5083233;28;20035;-72
2021/07/27 12:13:45;;;;;;;22.92;11.98;;;31.60;99.90;;;;;;5085557;28;20028;-72
2021/07/27 12:16:11;;;;;;;20.58;10.50;;;31.60;99.90;;;;;;5087663;28;20085;-71
2021/07/27 12:18:36;;;;;;;23.35;10.48;;;32.00;99.90;;;;;;5092637;28;20036;-72
2021/07/27 12:21:02;;;;;;;23.35;10.55;;;32.50;99.90;;;;;;5078431;28;20055;-71
2021/07/27 12:23:28;;;;;;;25.05;12.18;;;32.70;99.90;;;;;;5073285;28;20023;-72
2021/07/27 12:25:54;;;;;;;19.63;10.85;;;32.70;99.90;;;;;;5074465;28;20489;-73
2021/07/27 12:28:19;;;;;;;25.75;10.95;;;32.50;99.90;;;;;;5086994;28;20026;-66
2021/07/27 12:30:47;;;;;;;21.42;10.70;;;32.00;99.90;;;;;;5085898;28;20129;-73
2021/07/27 12:33:14;;;;;;;17.42;11.55;;;31.90;99.90;;;;;;5072207;28;20399;-73
2021/07/27 12:35:39;;;;;;;28.98;12.13;;;31.80;99.90;;;;;;5089435;28;20080;-73
2021/07/27 12:38:06;;;;;;;38.25;12.75;;;31.80;99.90;;;;;;5085548;28;20037;-73
2021/07/27 12:40:32;;;;;;;21.17;11.25;;;31.70;99.90;;;;;;5074168;28;20110;-75
2021/07/27 12:42:58;;;;;;;26.60;12.32;;;31.40;99.90;;;;;;5070004;28;20039;-73
2021/07/27 12:45:24;;;;;;;27.90;12.45;;;31.10;99.90;;;;;;5063432;28;20486;-72
2021/07/27 12:47:49;;;;;;;26.05;12.35;;;30.70;99.90;;;;;;5087461;28;20074;-73
2021/07/27 12:50:15;;;;;;;30.63;12.35;;;30.30;99.90;;;;;;5063469;28;20032;-71
2021/07/27 12:52:41;;;;;;;19.55;11.43;;;29.60;99.90;;;;;;5068688;28;20016;-72
2021/07/27 12:55:07;;;;;;;27.20;11.82;;;29.20;99.90;;;;;;5060925;28;20119;-72
2021/07/27 12:57:36;;;;;;;25.00;12.05;;;29.30;99.90;;;;;;5065462;28;20031;-72
2021/07/27 13:00:06;;;;;;;26.42;11.55;;;29.50;99.90;;;;;;5071776;28;20154;-73
2021/07/27 13:02:32;;;;;;;27.52;12.02;;;29.70;99.90;;;;;;5089976;28;20020;-75
2021/07/27 13:04:58;;;;;;;28.30;12.93;;;29.80;99.90;;;;;;5072920;28;20148;-73